createdAt,value
2023-05-19T00:00:15.640Z,1.92
2023-05-19T00:02:44.119Z,2.25
2023-05-19T00:05:13.085Z,2.20
2023-05-19T00:07:40.117Z,1.83
2023-05-19T00:10:07.482Z,1.95
2023-05-19T00:12:34.865Z,2.15
2023-05-19T00:15:01.655Z,2.03
2023-05-19T00:17:31.322Z,2.58
2023-05-19T00:19:58.070Z,2.00
2023-05-19T00:22:28.123Z,2.20
2023-05-19T00:24:55.134Z,1.63
2023-05-19T00:27:21.877Z,2.35
2023-05-19T00:29:48.472Z,2.20
2023-05-19T00:32:15.995Z,2.45
2023-05-19T00:34:45.478Z,2.80
2023-05-19T00:37:12.077Z,2.00
2023-05-19T00:39:38.689Z,2.00
2023-05-19T00:42:07.725Z,1.65
2023-05-19T00:47:01.452Z,2.30
2023-05-19T00:49:30.438Z,2.20
2023-05-19T00:51:57.844Z,2.50
2023-05-19T00:54:27.401Z,2.13
2023-05-19T00:56:59.189Z,2.03
2023-05-19T00:59:28.505Z,2.05
2023-05-19T01:01:57.802Z,2.28
2023-05-19T01:04:27.917Z,2.33
2023-05-19T01:06:56.938Z,2.38
2023-05-19T01:11:57.285Z,2.85
2023-05-19T01:14:24.018Z,2.47
2023-05-19T01:16:55.127Z,2.50
2023-05-19T01:19:27.914Z,2.30
2023-05-19T01:22:03.635Z,2.20
2023-05-19T01:24:47.572Z,2.35
2023-05-19T01:27:32.861Z,2.70
2023-05-19T01:30:18.366Z,2.20
2023-05-19T01:32:46.966Z,3.42
2023-05-19T01:35:21.862Z,2.35
2023-05-19T01:37:50.627Z,2.50
2023-05-19T01:40:21.633Z,2.60
2023-05-19T01:42:49.447Z,2.60
2023-05-19T01:45:16.708Z,2.65
2023-05-19T01:47:46.700Z,2.58
2023-05-19T01:50:16.070Z,2.17
2023-05-19T01:52:42.766Z,2.25
2023-05-19T01:55:09.936Z,2.42
2023-05-19T01:58:01.388Z,2.95
2023-05-19T02:00:43.290Z,3.00
2023-05-19T02:03:40.562Z,2.80
2023-05-19T02:06:16.186Z,2.40
2023-05-19T02:09:07.929Z,2.67
2023-05-19T02:11:40.346Z,2.78
2023-05-19T02:14:18.325Z,2.58
2023-05-19T02:16:50.352Z,2.47
2023-05-19T02:19:30.423Z,2.85
2023-05-19T02:21:57.101Z,2.83
2023-05-19T02:24:24.011Z,2.92
2023-05-19T02:26:53.973Z,2.85
2023-05-19T02:29:25.867Z,3.08
2023-05-19T02:31:55.337Z,2.65
2023-05-19T02:34:22.186Z,2.83
2023-05-19T02:36:53.836Z,3.67
2023-05-19T02:39:23.218Z,2.60
2023-05-19T02:41:52.081Z,3.03
2023-05-19T02:46:52.719Z,2.53
2023-05-19T02:49:22.482Z,2.95
2023-05-19T02:51:49.062Z,2.53
2023-05-19T02:54:20.625Z,2.90
2023-05-19T02:56:47.514Z,2.75
2023-05-19T02:59:16.553Z,3.20
2023-05-19T03:04:20.060Z,2.80
2023-05-19T03:06:49.192Z,2.83
2023-05-19T03:09:18.172Z,3.28
2023-05-19T03:14:15.737Z,3.05
2023-05-19T03:16:42.725Z,2.92
2023-05-19T03:19:12.259Z,3.03
2023-05-19T03:21:39.203Z,3.10
2023-05-19T03:24:06.762Z,3.05
2023-05-19T03:26:38.418Z,2.90
2023-05-19T03:29:05.134Z,3.30
2023-05-19T03:31:31.840Z,3.20
2023-05-19T03:33:58.581Z,3.22
2023-05-19T03:36:26.245Z,3.22
2023-05-19T03:38:55.251Z,2.97
2023-05-19T03:43:49.916Z,2.85
2023-05-19T03:46:18.860Z,2.83
2023-05-19T03:48:47.883Z,2.92
2023-05-19T03:51:14.534Z,2.95
2023-05-19T03:53:41.438Z,3.10
2023-05-19T03:56:08.929Z,3.50
2023-05-19T03:58:37.075Z,3.03
2023-05-19T04:01:03.694Z,3.00
2023-05-19T04:03:32.440Z,3.72
2023-05-19T04:06:06.882Z,3.30
2023-05-19T04:08:33.688Z,3.05
2023-05-19T04:11:04.316Z,3.53
2023-05-19T04:13:36.740Z,2.90
2023-05-19T04:16:06.131Z,3.53
2023-05-19T04:18:32.835Z,3.90
2023-05-19T04:20:59.415Z,3.45
2023-05-19T04:23:26.462Z,3.50
2023-05-19T04:25:57.138Z,3.60
2023-05-19T04:28:24.026Z,3.60
2023-05-19T04:30:50.668Z,3.53
2023-05-19T04:33:17.878Z,3.25
2023-05-19T04:35:44.564Z,3.30
2023-05-19T04:38:12.591Z,3.63
2023-05-19T04:40:42.891Z,3.50
2023-05-19T04:43:14.322Z,3.40
2023-05-19T04:45:46.597Z,3.67
2023-05-19T04:48:13.956Z,3.72
2023-05-19T04:50:43.138Z,3.80
2023-05-19T04:53:12.114Z,3.80
2023-05-19T04:55:40.981Z,4.35
2023-05-19T04:58:10.306Z,3.83
2023-05-19T05:00:39.935Z,4.22
2023-05-19T05:03:09.057Z,3.58
2023-05-19T05:05:35.755Z,4.32
2023-05-19T05:08:07.216Z,4.75
2023-05-19T05:10:34.082Z,4.93
2023-05-19T05:13:02.002Z,4.60
2023-05-19T05:15:29.922Z,4.20
2023-05-19T05:17:56.983Z,4.03
2023-05-19T05:20:26.540Z,4.50
2023-05-19T05:22:53.481Z,4.65
2023-05-19T05:25:20.719Z,4.00
2023-05-19T05:27:47.368Z,4.45
2023-05-19T05:30:14.190Z,3.92
2023-05-19T05:32:43.356Z,3.92
2023-05-19T05:35:15.135Z,4.38
2023-05-19T05:37:41.729Z,4.53
2023-05-19T05:40:11.188Z,4.10
2023-05-19T05:42:37.759Z,3.70
2023-05-19T05:45:04.803Z,4.03
2023-05-19T05:47:34.129Z,4.20
2023-05-19T05:50:04.417Z,4.07
2023-05-19T05:52:35.578Z,4.35
2023-05-19T05:55:02.624Z,3.78
2023-05-19T05:57:31.459Z,3.47
2023-05-19T06:00:00.350Z,4.07
2023-05-19T06:04:58.708Z,3.92
2023-05-19T06:07:25.458Z,4.32
2023-05-19T06:09:54.426Z,4.65
2023-05-19T06:14:49.682Z,4.15
2023-05-19T06:17:18.685Z,4.20
2023-05-19T06:19:50.174Z,3.83
2023-05-19T06:22:21.728Z,4.22
2023-05-19T06:24:48.538Z,5.03
2023-05-19T06:27:15.221Z,4.28
2023-05-19T06:29:41.943Z,3.85
2023-05-19T06:32:08.561Z,4.63
2023-05-19T06:34:38.411Z,3.80
2023-05-19T06:37:04.996Z,4.50
2023-05-19T06:39:34.114Z,3.95
2023-05-19T06:42:00.775Z,4.25
2023-05-19T06:44:27.497Z,4.00
2023-05-19T06:46:58.905Z,3.95
2023-05-19T06:49:30.732Z,3.72
2023-05-19T06:52:02.393Z,4.15
2023-05-19T06:54:29.030Z,3.97
2023-05-19T06:56:55.758Z,4.00
2023-05-19T06:59:27.118Z,3.88
2023-05-19T07:01:53.725Z,4.03
2023-05-19T07:04:23.837Z,4.13
2023-05-19T07:06:50.462Z,3.65
2023-05-19T07:09:17.249Z,4.25
2023-05-19T07:11:44.337Z,3.70
2023-05-19T07:14:15.454Z,3.70
2023-05-19T07:16:44.401Z,4.07
2023-05-19T07:19:11.076Z,3.70
2023-05-19T07:21:40.142Z,3.30
2023-05-19T07:24:07.081Z,3.70
2023-05-19T07:26:33.731Z,3.25
2023-05-19T07:29:00.475Z,3.35
2023-05-19T07:31:27.118Z,3.20
2023-05-19T07:33:56.978Z,3.13
2023-05-19T07:36:23.676Z,3.28
2023-05-19T07:38:55.136Z,3.30
2023-05-19T07:41:21.873Z,3.15
2023-05-19T07:43:50.846Z,3.55
2023-05-19T07:46:17.563Z,3.20
2023-05-19T07:48:44.345Z,3.03
2023-05-19T07:51:12.500Z,2.95
2023-05-19T07:53:39.152Z,2.72
2023-05-19T07:56:08.124Z,2.75
2023-05-19T07:58:34.944Z,2.85
2023-05-19T08:01:01.757Z,3.05
2023-05-19T08:03:30.667Z,2.38
2023-05-19T08:06:02.921Z,2.20
2023-05-19T08:08:29.556Z,2.70
2023-05-19T08:10:58.420Z,2.58
2023-05-19T08:15:59.549Z,2.45
2023-05-19T08:18:28.732Z,1.80
2023-05-19T08:20:56.167Z,2.00
2023-05-19T08:23:22.839Z,2.03
2023-05-19T08:25:52.347Z,2.33
2023-05-19T08:28:18.959Z,2.47
2023-05-19T08:30:47.933Z,2.22
2023-05-19T08:33:17.523Z,2.70
2023-05-19T08:35:46.809Z,2.45
2023-05-19T08:38:13.578Z,2.40
2023-05-19T08:40:46.312Z,2.97
2023-05-19T08:43:13.164Z,2.25
2023-05-19T08:45:43.592Z,2.45
2023-05-19T08:48:13.103Z,2.30
2023-05-19T08:50:44.228Z,3.10
2023-05-19T08:53:32.556Z,2.38
2023-05-19T08:56:31.404Z,2.50
2023-05-19T08:59:00.506Z,3.08
2023-05-19T09:01:28.926Z,3.00
2023-05-19T09:03:58.607Z,2.97
2023-05-19T09:06:26.488Z,2.70
2023-05-19T09:08:57.962Z,2.60
2023-05-19T09:11:27.571Z,2.60
2023-05-19T09:13:56.612Z,2.47
2023-05-19T09:16:23.376Z,3.28
2023-05-19T09:19:01.412Z,2.80
2023-05-19T09:21:31.279Z,2.80
2023-05-19T09:23:59.280Z,3.10
2023-05-19T09:26:37.384Z,3.05
2023-05-19T09:29:17.063Z,2.80
2023-05-19T09:31:54.668Z,3.10
2023-05-19T09:34:25.060Z,3.03
2023-05-19T09:36:54.264Z,2.70
2023-05-19T09:39:23.232Z,3.08
2023-05-19T09:41:58.662Z,2.72
2023-05-19T09:44:29.817Z,3.38
2023-05-19T09:47:00.132Z,3.38
2023-05-19T09:49:32.846Z,2.92
2023-05-19T09:52:03.916Z,3.55
2023-05-19T09:54:32.517Z,3.20
2023-05-19T09:57:03.599Z,3.78
2023-05-19T09:59:33.464Z,3.78
2023-05-19T10:02:01.593Z,3.38
2023-05-19T10:04:30.144Z,3.33
2023-05-19T10:06:59.792Z,3.28
2023-05-19T10:09:30.615Z,3.75
2023-05-19T10:11:59.805Z,2.97
2023-05-19T10:14:31.224Z,2.65
2023-05-19T10:17:00.330Z,3.25
2023-05-19T10:19:28.910Z,2.92
2023-05-19T10:21:56.309Z,3.20
2023-05-19T10:24:23.050Z,3.15
2023-05-19T10:27:03.533Z,3.58
2023-05-19T10:29:33.473Z,3.03
2023-05-19T10:32:09.520Z,3.25
2023-05-19T10:35:16.252Z,2.83
2023-05-19T10:38:05.052Z,2.95
2023-05-19T10:40:39.039Z,2.83
2023-05-19T10:43:18.622Z,2.97
2023-05-19T10:45:51.672Z,2.70
2023-05-19T10:48:23.974Z,2.72
2023-05-19T10:50:57.158Z,2.88
2023-05-19T10:53:37.241Z,2.97
2023-05-19T10:56:04.504Z,3.10
2023-05-19T10:58:38.336Z,3.00
2023-05-19T11:01:11.683Z,3.35
2023-05-19T11:04:09.195Z,2.83
2023-05-19T11:06:36.451Z,3.00
2023-05-19T11:09:34.153Z,3.20
2023-05-19T11:12:06.958Z,3.13
2023-05-19T11:14:40.212Z,2.55
2023-05-19T11:17:18.129Z,2.90
2023-05-19T11:20:03.858Z,3.40
2023-05-19T11:22:30.592Z,2.95
2023-05-19T11:24:59.940Z,2.85
2023-05-19T11:27:33.307Z,3.25
2023-05-19T11:30:20.025Z,3.00
2023-05-19T11:32:49.728Z,2.67
2023-05-19T11:35:19.120Z,2.22
2023-05-19T11:37:50.561Z,2.38
2023-05-19T11:40:18.059Z,2.53
2023-05-19T11:42:45.640Z,2.33
2023-05-19T11:45:12.310Z,2.42
2023-05-19T11:47:59.727Z,2.25
2023-05-19T11:50:31.450Z,2.80
2023-05-19T11:53:00.531Z,2.65
2023-05-19T11:55:27.965Z,2.38
2023-05-19T11:58:05.203Z,2.78
2023-05-19T12:00:39.567Z,2.92
2023-05-19T12:03:07.514Z,2.80
2023-05-19T12:05:43.650Z,2.50
2023-05-19T12:08:13.444Z,2.33
2023-05-19T12:10:43.363Z,2.60
2023-05-19T12:13:12.745Z,2.08
2023-05-19T12:15:39.626Z,2.53
2023-05-19T12:18:06.791Z,2.33
2023-05-19T12:20:37.388Z,2.45
2023-05-19T12:23:09.306Z,2.35
2023-05-19T12:25:36.461Z,2.75
2023-05-19T12:28:08.080Z,2.38
2023-05-19T12:30:37.356Z,2.22
2023-05-19T12:33:04.546Z,2.53
2023-05-19T12:35:34.302Z,2.35
2023-05-19T12:38:04.998Z,2.25
2023-05-19T12:40:33.400Z,2.00
2023-05-19T12:43:02.467Z,2.40
2023-05-19T12:45:33.734Z,2.50
2023-05-19T12:48:04.339Z,2.30
2023-05-19T12:50:34.383Z,2.20
2023-05-19T12:53:03.814Z,2.30
2023-05-19T12:55:30.564Z,2.10
2023-05-19T12:57:59.481Z,2.00
2023-05-19T13:00:28.982Z,2.30
2023-05-19T13:03:05.226Z,2.25
2023-05-19T13:05:40.400Z,2.25
2023-05-19T13:08:08.977Z,2.38
2023-05-19T13:13:05.919Z,2.20
2023-05-19T13:15:35.555Z,2.10
2023-05-19T13:18:04.352Z,2.08
2023-05-19T13:20:31.198Z,2.17
2023-05-19T13:23:00.417Z,1.98
2023-05-19T13:25:27.821Z,2.00
2023-05-19T13:27:59.336Z,2.30
2023-05-19T13:30:28.491Z,1.90
2023-05-19T13:32:56.419Z,1.70
2023-05-19T13:35:26.559Z,2.00
2023-05-19T13:37:55.418Z,2.00
2023-05-19T13:40:28.201Z,2.30
2023-05-19T13:42:59.838Z,2.22
2023-05-19T13:45:31.647Z,1.92
2023-05-19T13:48:00.996Z,2.15
2023-05-19T13:50:29.858Z,2.00
2023-05-19T13:52:58.770Z,2.20
2023-05-19T13:55:29.005Z,2.00
2023-05-19T13:57:58.180Z,1.90
2023-05-19T14:00:24.969Z,2.05
2023-05-19T14:02:51.636Z,2.40
2023-05-19T14:05:20.755Z,1.83
2023-05-19T14:08:43.439Z,2.30
2023-05-19T14:11:17.164Z,1.98
2023-05-19T14:14:03.558Z,1.60
2023-05-19T14:16:30.536Z,2.20
2023-05-19T14:18:57.288Z,1.52
2023-05-19T14:21:26.138Z,1.92
2023-05-19T14:23:55.218Z,2.20
2023-05-19T14:26:21.990Z,2.30
2023-05-19T14:28:51.449Z,1.80
2023-05-19T14:31:23.446Z,2.00
2023-05-19T14:33:54.231Z,2.30
2023-05-19T14:36:21.160Z,2.25
2023-05-19T14:45:15.386Z,1.77
2023-05-19T14:47:42.077Z,1.80
2023-05-19T14:50:08.904Z,1.77
2023-05-19T14:52:35.607Z,2.60
2023-05-19T14:55:02.457Z,1.88
2023-05-19T14:57:32.160Z,1.90
2023-05-19T14:59:58.729Z,2.10
2023-05-19T15:02:26.889Z,3.00
2023-05-19T15:04:57.261Z,1.75
2023-05-19T15:07:32.654Z,1.75
2023-05-19T15:13:42.093Z,2.00
2023-05-19T15:16:17.281Z,1.88
2023-05-19T15:18:51.541Z,1.85
2023-05-19T15:21:20.494Z,1.77
2023-05-19T15:23:49.351Z,1.85
2023-05-19T15:26:16.119Z,1.90
2023-05-19T15:28:43.127Z,2.28
2023-05-19T15:31:11.985Z,1.90
2023-05-19T15:33:41.190Z,2.10
2023-05-19T15:36:16.710Z,1.80
2023-05-19T15:38:52.988Z,1.83
2023-05-19T15:41:22.090Z,1.73
2023-05-19T15:43:51.278Z,1.90
2023-05-19T15:46:20.178Z,1.80
2023-05-19T15:48:49.220Z,1.88
2023-05-19T15:51:16.136Z,2.17
2023-05-19T15:53:47.667Z,1.92
2023-05-19T15:56:14.511Z,4.30
2023-05-19T15:58:41.298Z,2.00
2023-05-19T16:01:08.574Z,2.30
2023-05-19T16:03:37.707Z,2.08
2023-05-19T16:06:04.664Z,1.83
2023-05-19T16:08:31.364Z,2.13
2023-05-19T16:10:58.086Z,1.83
2023-05-19T16:13:26.943Z,1.95
2023-05-19T16:15:54.011Z,1.83
2023-05-19T16:18:23.791Z,1.70
2023-05-19T16:20:56.064Z,1.88
2023-05-19T16:23:24.630Z,1.98
2023-05-19T16:25:51.252Z,1.83
2023-05-19T16:28:22.448Z,1.85
2023-05-19T16:30:50.454Z,1.95
2023-05-19T16:33:17.145Z,1.80
2023-05-19T16:35:46.270Z,1.88
2023-05-19T16:38:15.192Z,2.08
2023-05-19T16:40:44.790Z,2.72
2023-05-19T16:43:14.184Z,2.15
2023-05-19T16:45:50.617Z,2.10
2023-05-19T16:48:17.451Z,2.25
2023-05-19T16:50:44.090Z,1.80
2023-05-19T16:53:15.421Z,2.38
2023-05-19T16:55:42.002Z,2.75
2023-05-19T16:58:11.907Z,2.40
2023-05-19T17:00:38.706Z,2.25
2023-05-19T17:03:05.584Z,2.50
2023-05-19T17:05:32.224Z,2.30
2023-05-19T17:07:58.906Z,2.25
2023-05-19T17:10:27.800Z,2.25
2023-05-19T17:12:59.290Z,2.10
2023-05-19T17:15:28.088Z,2.20
2023-05-19T17:17:54.795Z,2.00
2023-05-19T17:20:21.432Z,2.22
2023-05-19T17:22:50.577Z,2.30
2023-05-19T17:25:19.989Z,2.33
2023-05-19T17:27:46.569Z,2.45
2023-05-19T17:30:16.342Z,2.20
2023-05-19T17:32:45.302Z,3.00
2023-05-19T17:35:11.970Z,2.33
2023-05-19T17:37:38.549Z,2.08
2023-05-19T17:40:05.942Z,2.40
2023-05-19T17:42:36.298Z,2.30
2023-05-19T17:45:08.722Z,2.60
2023-05-19T17:47:35.334Z,2.10
2023-05-19T17:50:01.927Z,2.50
2023-05-19T17:52:28.934Z,2.10
2023-05-19T17:54:55.858Z,2.53
2023-05-19T17:57:30.577Z,2.30
2023-05-19T17:59:57.454Z,2.30
2023-05-19T18:02:24.294Z,2.42
2023-05-19T18:04:57.084Z,2.75
2023-05-19T18:07:27.655Z,3.00
2023-05-19T18:09:56.103Z,2.20
2023-05-19T18:12:22.825Z,2.75
2023-05-19T18:14:50.683Z,2.92
2023-05-19T18:17:19.805Z,2.95
2023-05-19T18:19:49.489Z,3.05
2023-05-19T18:22:21.284Z,3.30
2023-05-19T18:24:47.970Z,2.40
2023-05-19T18:27:14.534Z,2.95
2023-05-19T18:29:44.519Z,2.92
2023-05-19T18:32:17.671Z,2.72
2023-05-19T18:34:44.389Z,2.78
2023-05-19T18:37:13.619Z,2.78
2023-05-19T18:39:42.553Z,2.50
2023-05-19T18:42:09.192Z,3.03
2023-05-19T18:44:46.749Z,2.95
2023-05-19T18:47:14.192Z,2.70
2023-05-19T18:49:43.313Z,2.78
2023-05-19T18:52:09.957Z,2.65
2023-05-19T18:54:38.961Z,2.97
2023-05-19T18:57:05.845Z,2.90
2023-05-19T18:59:32.767Z,2.38
2023-05-19T19:02:01.926Z,3.03
2023-05-19T19:04:28.673Z,2.63
2023-05-19T19:06:55.253Z,2.80
2023-05-19T19:09:26.862Z,2.33
2023-05-19T19:11:57.074Z,3.80
2023-05-19T19:14:29.023Z,2.65
2023-05-19T19:16:56.173Z,2.75
2023-05-19T19:19:23.934Z,2.70
2023-05-19T19:21:50.687Z,2.88
2023-05-19T19:24:19.670Z,2.65
2023-05-19T19:26:46.300Z,2.70
2023-05-19T19:29:18.452Z,2.70
2023-05-19T19:31:47.507Z,2.63
2023-05-19T19:36:40.994Z,2.53
2023-05-19T19:39:09.901Z,2.67
2023-05-19T19:44:10.402Z,2.70
2023-05-19T19:46:42.250Z,2.72
2023-05-19T19:49:11.188Z,2.65
2023-05-19T19:54:06.694Z,2.72
2023-05-19T19:56:33.754Z,3.03
2023-05-19T19:59:03.364Z,2.90
2023-05-19T20:01:33.623Z,2.90
2023-05-19T20:04:00.759Z,2.88
2023-05-19T20:06:27.410Z,3.50
2023-05-19T20:08:59.223Z,2.95
2023-05-19T20:11:30.724Z,3.55
2023-05-19T20:13:59.767Z,3.20
2023-05-19T20:16:28.834Z,2.72
2023-05-19T20:18:55.694Z,2.88
2023-05-19T20:21:24.819Z,2.83
2023-05-19T20:23:53.891Z,2.85
2023-05-19T20:26:25.360Z,3.45
2023-05-19T20:29:07.139Z,3.20
2023-05-19T20:31:38.523Z,3.35
2023-05-19T20:34:07.533Z,3.80
2023-05-19T20:36:46.028Z,3.42
2023-05-19T20:39:12.747Z,3.28
2023-05-19T20:41:39.409Z,3.40
2023-05-19T20:44:06.573Z,3.25
2023-05-19T20:46:33.203Z,3.47
2023-05-19T20:49:03.410Z,3.30
2023-05-19T20:51:30.069Z,2.90
2023-05-19T20:53:59.954Z,3.20
2023-05-19T20:56:28.719Z,3.00
2023-05-19T20:58:55.438Z,2.92
2023-05-19T21:01:22.074Z,3.00
2023-05-19T21:03:51.283Z,3.15
2023-05-19T21:06:17.979Z,3.58
2023-05-19T21:08:46.895Z,3.13
2023-05-19T21:11:13.576Z,2.97
2023-05-19T21:13:40.649Z,3.03
2023-05-19T21:16:07.964Z,3.00
2023-05-19T21:18:36.937Z,3.08
2023-05-19T21:21:04.205Z,2.90
2023-05-19T21:23:32.930Z,2.80
2023-05-19T21:26:02.160Z,2.95
2023-05-19T21:28:30.971Z,2.85
2023-05-19T21:30:57.568Z,3.50
2023-05-19T21:33:24.261Z,3.40
2023-05-19T21:35:51.014Z,3.10
2023-05-19T21:38:23.948Z,3.00
2023-05-19T21:40:55.973Z,2.75
2023-05-19T21:43:30.204Z,2.78
2023-05-19T21:45:56.916Z,2.97
2023-05-19T21:48:28.302Z,2.80
2023-05-19T21:50:57.787Z,3.00
2023-05-19T21:53:24.961Z,2.35
2023-05-19T21:55:54.247Z,2.72
2023-05-19T21:58:26.112Z,2.90
2023-05-19T22:00:54.545Z,2.90
2023-05-19T22:03:21.856Z,2.58
2023-05-19T22:05:52.427Z,2.42
2023-05-19T22:08:26.063Z,2.92
2023-05-19T22:10:55.909Z,2.70
2023-05-19T22:13:22.470Z,2.88
2023-05-19T22:15:49.175Z,2.70
2023-05-19T22:18:15.815Z,2.90
2023-05-19T22:20:44.920Z,2.47
2023-05-19T22:23:23.402Z,2.80
2023-05-19T22:25:55.340Z,2.97
2023-05-19T22:28:21.973Z,2.63
2023-05-19T22:30:53.540Z,2.97
2023-05-19T22:33:22.938Z,3.13
2023-05-19T22:35:52.574Z,2.60
2023-05-19T22:38:19.140Z,2.70
2023-05-19T22:40:49.654Z,3.10
2023-05-19T22:43:18.511Z,2.83
2023-05-19T22:48:11.860Z,3.13
2023-05-19T22:50:38.567Z,2.90
2023-05-19T22:53:07.361Z,3.03
2023-05-19T22:55:36.621Z,3.28
2023-05-19T22:58:03.353Z,2.85
2023-05-19T23:00:32.838Z,2.90
2023-05-19T23:02:59.479Z,2.40
2023-05-19T23:05:28.459Z,2.70
2023-05-19T23:07:55.202Z,2.97
2023-05-19T23:10:24.185Z,2.88
2023-05-19T23:15:20.196Z,2.92
2023-05-19T23:17:51.569Z,2.42
2023-05-19T23:20:20.625Z,3.00
2023-05-19T23:22:53.644Z,3.00
2023-05-19T23:25:22.633Z,2.92
2023-05-19T23:27:49.194Z,2.97
2023-05-19T23:30:15.979Z,2.88
2023-05-19T23:32:44.917Z,2.70
2023-05-19T23:35:18.564Z,3.03
2023-05-19T23:37:48.440Z,2.92
2023-05-19T23:40:18.385Z,2.70
2023-05-19T23:42:47.298Z,2.95
2023-05-19T23:47:40.552Z,3.15
2023-05-19T23:50:07.367Z,3.00
2023-05-19T23:52:33.939Z,3.17
2023-05-19T23:55:00.605Z,3.22
2023-05-19T23:57:29.804Z,3.17
2023-05-19T23:59:56.787Z,3.30
